< < Back
Terminal Aerodrome Forecast


Current Version              Previous Versions:   1  2  3  4  5  6  7  8  9  

Terminal Aerodrome Forecast

819
FTUS44 KOHX 291700 AAB
TAFBNA
TAF AMD
KBNA 291703Z 2917/3012 35010KT P6SM SCT050
     FM300100 34003KT P6SM FEW060=

Latest METAR

252
SAUS70 KWBC 292100
MTRBNA
METAR KBNA 292053Z 36011KT 10SM BKN065 27/11 A3008 RMK AO2 SLP179
T02720111 58011


USA.gov is the U.S. government's official web portal to all federal, state and local government web resources and services.